Terminal Aerodrome Forecast
Issued by NWS St Louis, MO

Home | Current Version | Previous Version | Graphics & Text | Print | Product List | Glossary On
Versions: 1 2 3 4 5 6 7 8 9 10 11 12 13 14 15 16 17 18 19 20 21 22 23 24 25 26 27 28 29 30 31 32 33
000
FTUS43 KLSX 280024 AAB
TAFSTL
TAF AMD
KSTL 280024Z 2800/2906 16010G20KT P6SM VCTS BKN040CB
      TEMPO 2800/2801 6SM -TSRA BKN030CB
     FM280200 14006KT P6SM SCT040 BKN120
     FM280900 VRB04KT 5SM BR BKN020
     FM281400 27007KT P6SM SCT030 BKN120
     FM290000 29008KT P6SM SCT250=

USA.gov is the U.S. government's official web portal to all federal, state and local government web resources and services.